sensor_id;sensor_type;location;lat;lon;timestamp;P1;durP1;ratioP1;P2;durP2;ratioP2
32250;SDS011;41295;48.518;9.206;2023-04-25T00:00:22;7.38;;;3.15;;
32250;SDS011;41295;48.518;9.206;2023-04-25T00:02:26;9.63;;;3.40;;
32250;SDS011;41295;48.518;9.206;2023-04-25T00:04:29;7.85;;;3.03;;
32250;SDS011;41295;48.518;9.206;2023-04-25T00:06:34;7.85;;;3.78;;
32250;SDS011;41295;48.518;9.206;2023-04-25T00:08:38;13.27;;;3.05;;
32250;SDS011;41295;48.518;9.206;2023-04-25T00:10:42;7.15;;;3.78;;
32250;SDS011;41295;48.518;9.206;2023-04-25T00:12:45;7.55;;;3.85;;
32250;SDS011;41295;48.518;9.206;2023-04-25T00:14:47;6.15;;;3.30;;
32250;SDS011;41295;48.518;9.206;2023-04-25T00:16:50;6.75;;;3.20;;
32250;SDS011;41295;48.518;9.206;2023-04-25T00:18:54;6.25;;;3.60;;
32250;SDS011;41295;48.518;9.206;2023-04-25T00:20:57;6.80;;;3.83;;
32250;SDS011;41295;48.518;9.206;2023-04-25T00:23:00;7.60;;;4.00;;
32250;SDS011;41295;48.518;9.206;2023-04-25T00:25:03;6.70;;;3.72;;
32250;SDS011;41295;48.518;9.206;2023-04-25T00:27:08;9.68;;;3.70;;
32250;SDS011;41295;48.518;9.206;2023-04-25T00:29:11;10.57;;;4.10;;
32250;SDS011;41295;48.518;9.206;2023-04-25T00:31:14;7.80;;;3.33;;
32250;SDS011;41295;48.518;9.206;2023-04-25T00:33:16;8.20;;;3.92;;
32250;SDS011;41295;48.518;9.206;2023-04-25T00:35:19;8.45;;;3.22;;
32250;SDS011;41295;48.518;9.206;2023-04-25T00:37:22;6.88;;;3.33;;
32250;SDS011;41295;48.518;9.206;2023-04-25T00:39:24;5.00;;;3.03;;
32250;SDS011;41295;48.518;9.206;2023-04-25T00:41:27;5.25;;;3.50;;
32250;SDS011;41295;48.518;9.206;2023-04-25T00:43:32;8.27;;;3.28;;
32250;SDS011;41295;48.518;9.206;2023-04-25T00:45:36;7.65;;;3.30;;
32250;SDS011;41295;48.518;9.206;2023-04-25T00:47:40;5.75;;;2.97;;
32250;SDS011;41295;48.518;9.206;2023-04-25T00:49:43;10.13;;;3.85;;
32250;SDS011;41295;48.518;9.206;2023-04-25T00:51:46;6.13;;;3.10;;
32250;SDS011;41295;48.518;9.206;2023-04-25T00:53:49;5.47;;;3.58;;
32250;SDS011;41295;48.518;9.206;2023-04-25T00:55:52;6.68;;;3.15;;
32250;SDS011;41295;48.518;9.206;2023-04-25T00:57:55;4.63;;;3.35;;
32250;SDS011;41295;48.518;9.206;2023-04-25T00:59:59;6.68;;;3.40;;
32250;SDS011;41295;48.518;9.206;2023-04-25T01:02:02;4.60;;;3.42;;
32250;SDS011;41295;48.518;9.206;2023-04-25T01:04:06;5.40;;;3.00;;
32250;SDS011;41295;48.518;9.206;2023-04-25T01:06:09;7.30;;;3.60;;
32250;SDS011;41295;48.518;9.206;2023-04-25T01:08:12;5.75;;;3.50;;
32250;SDS011;41295;48.518;9.206;2023-04-25T01:10:16;11.27;;;3.55;;
32250;SDS011;41295;48.518;9.206;2023-04-25T01:12:18;5.38;;;3.05;;
32250;SDS011;41295;48.518;9.206;2023-04-25T01:14:21;9.73;;;3.47;;
32250;SDS011;41295;48.518;9.206;2023-04-25T01:16:25;8.48;;;3.33;;
32250;SDS011;41295;48.518;9.206;2023-04-25T01:18:28;7.80;;;3.05;;
32250;SDS011;41295;48.518;9.206;2023-04-25T01:20:31;5.80;;;3.00;;
32250;SDS011;41295;48.518;9.206;2023-04-25T01:22:36;6.22;;;2.90;;
32250;SDS011;41295;48.518;9.206;2023-04-25T01:24:39;6.97;;;3.10;;
32250;SDS011;41295;48.518;9.206;2023-04-25T01:26:42;13.48;;;3.47;;
32250;SDS011;41295;48.518;9.206;2023-04-25T01:28:50;5.25;;;3.15;;
32250;SDS011;41295;48.518;9.206;2023-04-25T01:30:53;6.30;;;3.05;;
32250;SDS011;41295;48.518;9.206;2023-04-25T01:32:57;8.68;;;3.53;;
32250;SDS011;41295;48.518;9.206;2023-04-25T01:34:59;4.78;;;3.15;;
32250;SDS011;41295;48.518;9.206;2023-04-25T01:37:03;7.47;;;3.38;;
32250;SDS011;41295;48.518;9.206;2023-04-25T01:39:07;8.32;;;4.03;;
32250;SDS011;41295;48.518;9.206;2023-04-25T01:41:10;6.82;;;3.08;;
32250;SDS011;41295;48.518;9.206;2023-04-25T01:43:13;6.80;;;3.25;;
32250;SDS011;41295;48.518;9.206;2023-04-25T01:45:16;6.63;;;3.58;;
32250;SDS011;41295;48.518;9.206;2023-04-25T01:47:19;13.95;;;3.47;;
32250;SDS011;41295;48.518;9.206;2023-04-25T01:49:22;9.05;;;3.53;;
32250;SDS011;41295;48.518;9.206;2023-04-25T01:51:27;8.15;;;3.28;;
32250;SDS011;41295;48.518;9.206;2023-04-25T01:53:31;6.07;;;3.47;;
32250;SDS011;41295;48.518;9.206;2023-04-25T01:55:35;8.00;;;3.38;;
32250;SDS011;41295;48.518;9.206;2023-04-25T01:57:38;7.53;;;3.40;;
32250;SDS011;41295;48.518;9.206;2023-04-25T01:59:41;5.70;;;3.65;;
32250;SDS011;41295;48.518;9.206;2023-04-25T02:01:44;8.52;;;3.58;;
32250;SDS011;41295;48.518;9.206;2023-04-25T02:03:46;7.45;;;3.22;;
32250;SDS011;41295;48.518;9.206;2023-04-25T02:05:50;6.38;;;3.25;;
32250;SDS011;41295;48.518;9.206;2023-04-25T02:07:52;7.75;;;3.33;;
32250;SDS011;41295;48.518;9.206;2023-04-25T02:09:55;4.43;;;3.13;;
32250;SDS011;41295;48.518;9.206;2023-04-25T02:11:59;7.65;;;3.25;;
32250;SDS011;41295;48.518;9.206;2023-04-25T02:14:01;6.40;;;3.80;;
32250;SDS011;41295;48.518;9.206;2023-04-25T02:16:04;7.35;;;4.13;;
32250;SDS011;41295;48.518;9.206;2023-04-25T02:18:07;7.97;;;4.28;;
32250;SDS011;41295;48.518;9.206;2023-04-25T02:20:11;7.70;;;3.45;;
32250;SDS011;41295;48.518;9.206;2023-04-25T02:22:14;7.95;;;3.70;;
32250;SDS011;41295;48.518;9.206;2023-04-25T02:24:17;6.45;;;3.13;;
32250;SDS011;41295;48.518;9.206;2023-04-25T02:26:19;5.97;;;3.80;;
32250;SDS011;41295;48.518;9.206;2023-04-25T02:28:23;11.98;;;3.30;;
32250;SDS011;41295;48.518;9.206;2023-04-25T02:30:27;7.07;;;3.75;;
32250;SDS011;41295;48.518;9.206;2023-04-25T02:32:29;7.78;;;3.42;;
32250;SDS011;41295;48.518;9.206;2023-04-25T02:34:32;5.00;;;3.15;;
32250;SDS011;41295;48.518;9.206;2023-04-25T02:36:34;5.13;;;3.15;;
32250;SDS011;41295;48.518;9.206;2023-04-25T02:38:37;6.30;;;3.08;;
32250;SDS011;41295;48.518;9.206;2023-04-25T02:40:40;7.85;;;3.17;;
32250;SDS011;41295;48.518;9.206;2023-04-25T02:42:43;9.55;;;2.70;;
32250;SDS011;41295;48.518;9.206;2023-04-25T02:44:48;6.95;;;3.42;;
32250;SDS011;41295;48.518;9.206;2023-04-25T02:46:50;5.13;;;2.85;;
32250;SDS011;41295;48.518;9.206;2023-04-25T02:48:53;6.70;;;2.92;;
32250;SDS011;41295;48.518;9.206;2023-04-25T02:50:56;7.63;;;2.85;;
32250;SDS011;41295;48.518;9.206;2023-04-25T02:52:58;7.38;;;2.97;;
32250;SDS011;41295;48.518;9.206;2023-04-25T02:55:01;6.45;;;2.97;;
32250;SDS011;41295;48.518;9.206;2023-04-25T02:57:03;3.97;;;2.72;;
32250;SDS011;41295;48.518;9.206;2023-04-25T02:59:06;5.57;;;2.90;;
32250;SDS011;41295;48.518;9.206;2023-04-25T03:01:10;7.25;;;3.20;;
32250;SDS011;41295;48.518;9.206;2023-04-25T03:03:12;8.23;;;2.95;;
32250;SDS011;41295;48.518;9.206;2023-04-25T03:05:16;7.47;;;2.80;;
32250;SDS011;41295;48.518;9.206;2023-04-25T03:07:19;4.47;;;2.85;;
32250;SDS011;41295;48.518;9.206;2023-04-25T03:09:21;4.10;;;2.42;;
32250;SDS011;41295;48.518;9.206;2023-04-25T03:11:25;6.68;;;2.80;;
32250;SDS011;41295;48.518;9.206;2023-04-25T03:13:27;6.47;;;2.90;;
32250;SDS011;41295;48.518;9.206;2023-04-25T03:15:31;6.22;;;3.20;;
32250;SDS011;41295;48.518;9.206;2023-04-25T03:17:34;3.72;;;2.85;;
32250;SDS011;41295;48.518;9.206;2023-04-25T03:19:37;7.25;;;3.15;;
32250;SDS011;41295;48.518;9.206;2023-04-25T03:21:40;6.53;;;2.90;;
32250;SDS011;41295;48.518;9.206;2023-04-25T03:23:42;9.50;;;2.83;;
32250;SDS011;41295;48.518;9.206;2023-04-25T03:25:45;7.47;;;2.97;;
32250;SDS011;41295;48.518;9.206;2023-04-25T03:27:47;6.10;;;2.72;;
32250;SDS011;41295;48.518;9.206;2023-04-25T03:29:50;9.90;;;3.08;;
32250;SDS011;41295;48.518;9.206;2023-04-25T03:31:53;8.68;;;3.33;;
32250;SDS011;41295;48.518;9.206;2023-04-25T03:33:57;6.60;;;2.92;;
32250;SDS011;41295;48.518;9.206;2023-04-25T03:35:59;6.57;;;3.10;;
32250;SDS011;41295;48.518;9.206;2023-04-25T03:38:02;4.60;;;2.80;;
32250;SDS011;41295;48.518;9.206;2023-04-25T03:40:05;6.53;;;3.00;;
32250;SDS011;41295;48.518;9.206;2023-04-25T03:42:08;7.85;;;2.97;;
32250;SDS011;41295;48.518;9.206;2023-04-25T03:44:11;10.02;;;3.08;;
32250;SDS011;41295;48.518;9.206;2023-04-25T03:46:14;6.95;;;2.85;;
32250;SDS011;41295;48.518;9.206;2023-04-25T03:48:16;6.85;;;2.90;;
32250;SDS011;41295;48.518;9.206;2023-04-25T03:50:20;7.03;;;2.60;;
32250;SDS011;41295;48.518;9.206;2023-04-25T03:52:23;6.75;;;3.03;;
32250;SDS011;41295;48.518;9.206;2023-04-25T03:54:26;8.93;;;3.05;;
32250;SDS011;41295;48.518;9.206;2023-04-25T03:56:28;7.43;;;2.65;;
32250;SDS011;41295;48.518;9.206;2023-04-25T03:58:31;6.20;;;2.85;;
32250;SDS011;41295;48.518;9.206;2023-04-25T04:00:34;7.75;;;3.17;;
32250;SDS011;41295;48.518;9.206;2023-04-25T04:02:37;6.53;;;2.85;;
32250;SDS011;41295;48.518;9.206;2023-04-25T04:04:41;8.02;;;2.63;;
32250;SDS011;41295;48.518;9.206;2023-04-25T04:06:47;9.07;;;2.70;;
32250;SDS011;41295;48.518;9.206;2023-04-25T04:08:49;6.53;;;2.90;;
32250;SDS011;41295;48.518;9.206;2023-04-25T04:10:52;5.68;;;2.80;;
32250;SDS011;41295;48.518;9.206;2023-04-25T04:12:54;10.75;;;3.20;;
32250;SDS011;41295;48.518;9.206;2023-04-25T04:14:57;5.80;;;2.80;;
32250;SDS011;41295;48.518;9.206;2023-04-25T04:17:00;7.22;;;3.15;;
32250;SDS011;41295;48.518;9.206;2023-04-25T04:19:02;7.20;;;2.97;;
32250;SDS011;41295;48.518;9.206;2023-04-25T04:21:05;8.35;;;2.83;;
32250;SDS011;41295;48.518;9.206;2023-04-25T04:23:11;6.00;;;2.67;;
32250;SDS011;41295;48.518;9.206;2023-04-25T04:25:14;7.25;;;3.28;;
32250;SDS011;41295;48.518;9.206;2023-04-25T04:27:17;5.45;;;3.17;;
32250;SDS011;41295;48.518;9.206;2023-04-25T04:29:20;9.10;;;3.53;;
32250;SDS011;41295;48.518;9.206;2023-04-25T04:31:22;5.30;;;2.83;;
32250;SDS011;41295;48.518;9.206;2023-04-25T04:33:25;8.68;;;3.08;;
32250;SDS011;41295;48.518;9.206;2023-04-25T04:35:28;7.70;;;3.22;;
32250;SDS011;41295;48.518;9.206;2023-04-25T04:37:31;6.15;;;2.97;;
32250;SDS011;41295;48.518;9.206;2023-04-25T04:39:35;7.10;;;3.15;;
32250;SDS011;41295;48.518;9.206;2023-04-25T04:41:38;6.70;;;3.50;;
32250;SDS011;41295;48.518;9.206;2023-04-25T04:43:40;10.05;;;3.10;;
32250;SDS011;41295;48.518;9.206;2023-04-25T04:45:44;8.68;;;3.25;;
32250;SDS011;41295;48.518;9.206;2023-04-25T04:47:47;9.80;;;3.63;;
32250;SDS011;41295;48.518;9.206;2023-04-25T04:49:50;7.05;;;3.55;;
32250;SDS011;41295;48.518;9.206;2023-04-25T04:51:52;6.53;;;2.83;;
32250;SDS011;41295;48.518;9.206;2023-04-25T04:53:58;6.15;;;3.15;;
32250;SDS011;41295;48.518;9.206;2023-04-25T04:56:05;12.05;;;3.80;;
32250;SDS011;41295;48.518;9.206;2023-04-25T04:58:08;9.70;;;3.78;;
32250;SDS011;41295;48.518;9.206;2023-04-25T05:00:11;6.78;;;3.22;;
32250;SDS011;41295;48.518;9.206;2023-04-25T05:02:14;6.30;;;3.88;;
32250;SDS011;41295;48.518;9.206;2023-04-25T05:04:17;7.38;;;3.30;;
32250;SDS011;41295;48.518;9.206;2023-04-25T05:06:19;8.68;;;3.40;;
32250;SDS011;41295;48.518;9.206;2023-04-25T05:08:22;11.07;;;4.10;;
32250;SDS011;41295;48.518;9.206;2023-04-25T05:10:25;6.10;;;3.38;;
32250;SDS011;41295;48.518;9.206;2023-04-25T05:12:29;8.05;;;3.75;;
32250;SDS011;41295;48.518;9.206;2023-04-25T05:14:32;10.27;;;3.67;;
32250;SDS011;41295;48.518;9.206;2023-04-25T05:16:35;15.50;;;3.92;;
32250;SDS011;41295;48.518;9.206;2023-04-25T05:18:38;9.18;;;4.40;;
32250;SDS011;41295;48.518;9.206;2023-04-25T05:20:41;8.65;;;3.70;;
32250;SDS011;41295;48.518;9.206;2023-04-25T05:22:43;9.75;;;4.55;;
32250;SDS011;41295;48.518;9.206;2023-04-25T05:24:46;7.28;;;4.18;;
32250;SDS011;41295;48.518;9.206;2023-04-25T05:26:49;12.65;;;4.07;;
32250;SDS011;41295;48.518;9.206;2023-04-25T05:28:53;8.95;;;3.70;;
32250;SDS011;41295;48.518;9.206;2023-04-25T05:30:56;11.45;;;3.70;;
32250;SDS011;41295;48.518;9.206;2023-04-25T05:32:59;7.47;;;3.90;;
32250;SDS011;41295;48.518;9.206;2023-04-25T05:35:01;9.40;;;4.20;;
32250;SDS011;41295;48.518;9.206;2023-04-25T05:37:04;7.22;;;3.75;;
32250;SDS011;41295;48.518;9.206;2023-04-25T05:39:07;15.93;;;3.65;;
32250;SDS011;41295;48.518;9.206;2023-04-25T05:41:10;6.20;;;2.97;;
32250;SDS011;41295;48.518;9.206;2023-04-25T05:43:12;7.28;;;3.60;;
32250;SDS011;41295;48.518;9.206;2023-04-25T05:45:16;6.53;;;3.40;;
32250;SDS011;41295;48.518;9.206;2023-04-25T05:47:19;6.55;;;3.20;;
32250;SDS011;41295;48.518;9.206;2023-04-25T05:49:21;6.47;;;3.53;;
32250;SDS011;41295;48.518;9.206;2023-04-25T05:51:24;7.88;;;4.00;;
32250;SDS011;41295;48.518;9.206;2023-04-25T05:53:27;7.10;;;3.55;;
32250;SDS011;41295;48.518;9.206;2023-04-25T05:55:29;5.90;;;3.35;;
32250;SDS011;41295;48.518;9.206;2023-04-25T05:57:32;8.70;;;4.18;;
32250;SDS011;41295;48.518;9.206;2023-04-25T05:59:35;6.22;;;3.58;;
32250;SDS011;41295;48.518;9.206;2023-04-25T06:01:38;5.65;;;3.60;;
32250;SDS011;41295;48.518;9.206;2023-04-25T06:03:41;6.60;;;3.55;;
32250;SDS011;41295;48.518;9.206;2023-04-25T06:05:44;8.23;;;4.18;;
32250;SDS011;41295;48.518;9.206;2023-04-25T06:07:47;5.10;;;3.70;;
32250;SDS011;41295;48.518;9.206;2023-04-25T06:09:50;7.85;;;4.05;;
32250;SDS011;41295;48.518;9.206;2023-04-25T06:11:52;8.88;;;3.65;;
32250;SDS011;41295;48.518;9.206;2023-04-25T06:13:55;7.28;;;3.85;;
32250;SDS011;41295;48.518;9.206;2023-04-25T06:15:58;6.20;;;3.30;;
32250;SDS011;41295;48.518;9.206;2023-04-25T06:18:02;8.13;;;3.60;;
32250;SDS011;41295;48.518;9.206;2023-04-25T06:20:05;10.20;;;3.17;;
32250;SDS011;41295;48.518;9.206;2023-04-25T06:22:09;5.90;;;3.25;;
32250;SDS011;41295;48.518;9.206;2023-04-25T06:24:12;8.68;;;3.40;;
32250;SDS011;41295;48.518;9.206;2023-04-25T06:26:14;6.07;;;3.45;;
32250;SDS011;41295;48.518;9.206;2023-04-25T06:28:17;8.38;;;3.10;;
32250;SDS011;41295;48.518;9.206;2023-04-25T06:30:20;6.47;;;3.30;;
32250;SDS011;41295;48.518;9.206;2023-04-25T06:32:26;10.30;;;3.40;;
32250;SDS011;41295;48.518;9.206;2023-04-25T06:34:32;5.70;;;3.00;;
32250;SDS011;41295;48.518;9.206;2023-04-25T06:36:35;14.40;;;3.35;;
32250;SDS011;41295;48.518;9.206;2023-04-25T06:38:40;4.60;;;2.65;;
32250;SDS011;41295;48.518;9.206;2023-04-25T06:40:45;6.78;;;3.05;;
32250;SDS011;41295;48.518;9.206;2023-04-25T06:42:49;6.88;;;3.05;;
32250;SDS011;41295;48.518;9.206;2023-04-25T06:44:52;7.15;;;2.80;;
32250;SDS011;41295;48.518;9.206;2023-04-25T06:46:54;5.57;;;2.83;;
32250;SDS011;41295;48.518;9.206;2023-04-25T06:48:57;5.93;;;2.78;;
32250;SDS011;41295;48.518;9.206;2023-04-25T06:51:01;8.30;;;3.00;;
32250;SDS011;41295;48.518;9.206;2023-04-25T06:53:04;6.05;;;3.60;;
32250;SDS011;41295;48.518;9.206;2023-04-25T06:55:07;4.95;;;3.17;;
32250;SDS011;41295;48.518;9.206;2023-04-25T06:57:10;9.20;;;3.60;;
32250;SDS011;41295;48.518;9.206;2023-04-25T06:59:12;10.15;;;4.32;;
32250;SDS011;41295;48.518;9.206;2023-04-25T07:01:15;6.72;;;3.35;;
32250;SDS011;41295;48.518;9.206;2023-04-25T07:03:18;8.73;;;3.40;;
32250;SDS011;41295;48.518;9.206;2023-04-25T07:05:21;8.85;;;3.70;;
32250;SDS011;41295;48.518;9.206;2023-04-25T07:07:24;7.45;;;3.20;;
32250;SDS011;41295;48.518;9.206;2023-04-25T07:09:27;6.18;;;3.45;;
32250;SDS011;41295;48.518;9.206;2023-04-25T07:11:30;6.85;;;3.30;;
32250;SDS011;41295;48.518;9.206;2023-04-25T07:13:32;6.55;;;2.97;;
32250;SDS011;41295;48.518;9.206;2023-04-25T07:15:35;4.80;;;3.22;;
32250;SDS011;41295;48.518;9.206;2023-04-25T07:17:37;5.90;;;2.95;;
32250;SDS011;41295;48.518;9.206;2023-04-25T07:19:40;8.07;;;3.70;;
32250;SDS011;41295;48.518;9.206;2023-04-25T07:21:43;4.07;;;2.80;;
32250;SDS011;41295;48.518;9.206;2023-04-25T07:23:49;6.38;;;2.28;;
32250;SDS011;41295;48.518;9.206;2023-04-25T07:25:52;8.05;;;2.42;;
32250;SDS011;41295;48.518;9.206;2023-04-25T07:27:54;6.35;;;2.45;;
32250;SDS011;41295;48.518;9.206;2023-04-25T07:29:57;6.90;;;2.22;;
32250;SDS011;41295;48.518;9.206;2023-04-25T07:31:59;5.82;;;2.30;;
32250;SDS011;41295;48.518;9.206;2023-04-25T07:34:02;5.20;;;2.75;;
32250;SDS011;41295;48.518;9.206;2023-04-25T07:36:05;7.10;;;2.80;;
32250;SDS011;41295;48.518;9.206;2023-04-25T07:38:08;4.35;;;2.45;;
32250;SDS011;41295;48.518;9.206;2023-04-25T07:40:12;8.73;;;2.60;;
32250;SDS011;41295;48.518;9.206;2023-04-25T07:42:16;3.03;;;2.10;;
32250;SDS011;41295;48.518;9.206;2023-04-25T07:44:19;3.33;;;2.40;;
32250;SDS011;41295;48.518;9.206;2023-04-25T07:46:22;5.78;;;2.58;;
32250;SDS011;41295;48.518;9.206;2023-04-25T07:48:24;6.20;;;2.50;;
32250;SDS011;41295;48.518;9.206;2023-04-25T07:50:27;4.82;;;2.50;;
32250;SDS011;41295;48.518;9.206;2023-04-25T07:52:29;7.05;;;2.95;;
32250;SDS011;41295;48.518;9.206;2023-04-25T07:54:32;4.68;;;2.35;;
32250;SDS011;41295;48.518;9.206;2023-04-25T07:56:36;4.63;;;2.33;;
32250;SDS011;41295;48.518;9.206;2023-04-25T07:58:53;3.80;;;2.53;;
32250;SDS011;41295;48.518;9.206;2023-04-25T08:00:55;7.38;;;3.45;;
32250;SDS011;41295;48.518;9.206;2023-04-25T08:02:58;6.93;;;2.65;;
32250;SDS011;41295;48.518;9.206;2023-04-25T08:05:01;5.95;;;2.60;;
32250;SDS011;41295;48.518;9.206;2023-04-25T08:07:04;6.95;;;2.70;;
32250;SDS011;41295;48.518;9.206;2023-04-25T08:09:06;6.25;;;3.40;;
32250;SDS011;41295;48.518;9.206;2023-04-25T08:11:10;5.60;;;2.63;;
32250;SDS011;41295;48.518;9.206;2023-04-25T08:13:14;4.15;;;3.00;;
32250;SDS011;41295;48.518;9.206;2023-04-25T08:15:17;6.70;;;3.00;;
32250;SDS011;41295;48.518;9.206;2023-04-25T08:17:19;5.43;;;2.92;;
32250;SDS011;41295;48.518;9.206;2023-04-25T08:19:22;5.82;;;2.50;;
32250;SDS011;41295;48.518;9.206;2023-04-25T08:21:24;4.10;;;2.75;;
32250;SDS011;41295;48.518;9.206;2023-04-25T08:23:28;3.78;;;2.72;;
32250;SDS011;41295;48.518;9.206;2023-04-25T08:25:30;7.68;;;2.90;;
32250;SDS011;41295;48.518;9.206;2023-04-25T08:27:33;7.57;;;3.28;;
32250;SDS011;41295;48.518;9.206;2023-04-25T08:29:37;7.90;;;3.80;;
32250;SDS011;41295;48.518;9.206;2023-04-25T08:31:39;6.30;;;3.85;;
32250;SDS011;41295;48.518;9.206;2023-04-25T08:33:42;7.90;;;3.28;;
32250;SDS011;41295;48.518;9.206;2023-04-25T08:35:45;4.72;;;3.75;;
32250;SDS011;41295;48.518;9.206;2023-04-25T08:37:48;4.45;;;3.40;;
32250;SDS011;41295;48.518;9.206;2023-04-25T08:39:51;5.97;;;3.92;;
32250;SDS011;41295;48.518;9.206;2023-04-25T08:41:54;4.22;;;3.35;;
32250;SDS011;41295;48.518;9.206;2023-04-25T08:43:58;5.50;;;3.15;;
32250;SDS011;41295;48.518;9.206;2023-04-25T08:46:03;4.63;;;3.03;;
32250;SDS011;41295;48.518;9.206;2023-04-25T08:48:09;4.90;;;2.78;;
32250;SDS011;41295;48.518;9.206;2023-04-25T08:50:13;4.28;;;2.70;;
32250;SDS011;41295;48.518;9.206;2023-04-25T08:52:16;4.95;;;3.10;;
32250;SDS011;41295;48.518;9.206;2023-04-25T08:54:24;3.38;;;2.83;;
32250;SDS011;41295;48.518;9.206;2023-04-25T08:58:39;4.72;;;3.38;;
32250;SDS011;41295;48.518;9.206;2023-04-25T09:00:42;4.63;;;2.97;;
32250;SDS011;41295;48.518;9.206;2023-04-25T09:02:48;7.18;;;3.92;;
32250;SDS011;41295;48.518;9.206;2023-04-25T09:04:51;4.57;;;3.65;;
32250;SDS011;41295;48.518;9.206;2023-04-25T09:06:57;6.43;;;3.90;;
32250;SDS011;41295;48.518;9.206;2023-04-25T09:09:01;6.72;;;3.97;;
32250;SDS011;41295;48.518;9.206;2023-04-25T09:11:07;6.65;;;4.00;;
32250;SDS011;41295;48.518;9.206;2023-04-25T09:13:10;5.28;;;3.85;;
32250;SDS011;41295;48.518;9.206;2023-04-25T09:15:15;6.90;;;4.20;;
32250;SDS011;41295;48.518;9.206;2023-04-25T09:17:21;8.90;;;4.47;;
32250;SDS011;41295;48.518;9.206;2023-04-25T09:19:25;6.60;;;3.60;;
32250;SDS011;41295;48.518;9.206;2023-04-25T09:21:40;5.10;;;3.92;;
32250;SDS011;41295;48.518;9.206;2023-04-25T09:23:44;5.30;;;3.70;;
32250;SDS011;41295;48.518;9.206;2023-04-25T09:25:48;7.55;;;4.07;;
32250;SDS011;41295;48.518;9.206;2023-04-25T09:27:51;7.35;;;4.00;;
32250;SDS011;41295;48.518;9.206;2023-04-25T09:29:57;6.05;;;3.70;;
32250;SDS011;41295;48.518;9.206;2023-04-25T09:36:29;5.32;;;3.65;;
32250;SDS011;41295;48.518;9.206;2023-04-25T09:38:34;5.55;;;3.72;;
32250;SDS011;41295;48.518;9.206;2023-04-25T09:40:43;5.18;;;3.95;;
32250;SDS011;41295;48.518;9.206;2023-04-25T09:42:48;5.88;;;3.67;;
32250;SDS011;41295;48.518;9.206;2023-04-25T09:44:51;6.20;;;3.53;;
32250;SDS011;41295;48.518;9.206;2023-04-25T09:46:55;6.10;;;4.20;;
32250;SDS011;41295;48.518;9.206;2023-04-25T09:48:58;5.50;;;3.80;;
32250;SDS011;41295;48.518;9.206;2023-04-25T09:51:05;5.70;;;3.45;;
32250;SDS011;41295;48.518;9.206;2023-04-25T09:53:11;2.85;;;1.85;;
32250;SDS011;41295;48.518;9.206;2023-04-25T09:55:13;5.05;;;2.13;;
32250;SDS011;41295;48.518;9.206;2023-04-25T09:57:17;2.40;;;1.92;;
32250;SDS011;41295;48.518;9.206;2023-04-25T09:59:21;2.92;;;2.05;;
32250;SDS011;41295;48.518;9.206;2023-04-25T10:01:24;2.75;;;1.85;;
32250;SDS011;41295;48.518;9.206;2023-04-25T10:03:29;2.25;;;1.70;;
32250;SDS011;41295;48.518;9.206;2023-04-25T10:05:32;2.72;;;1.88;;
32250;SDS011;41295;48.518;9.206;2023-04-25T10:07:40;2.55;;;2.05;;
32250;SDS011;41295;48.518;9.206;2023-04-25T10:09:44;2.58;;;1.92;;
32250;SDS011;41295;48.518;9.206;2023-04-25T10:11:50;1.58;;;1.48;;
32250;SDS011;41295;48.518;9.206;2023-04-25T10:13:54;2.88;;;1.50;;
32250;SDS011;41295;48.518;9.206;2023-04-25T10:15:58;1.52;;;1.38;;
32250;SDS011;41295;48.518;9.206;2023-04-25T10:18:02;1.83;;;1.55;;
32250;SDS011;41295;48.518;9.206;2023-04-25T10:20:05;3.13;;;1.85;;
32250;SDS011;41295;48.518;9.206;2023-04-25T10:22:13;1.80;;;1.30;;
32250;SDS011;41295;48.518;9.206;2023-04-25T10:24:20;2.28;;;1.83;;
32250;SDS011;41295;48.518;9.206;2023-04-25T10:26:24;1.73;;;1.50;;
32250;SDS011;41295;48.518;9.206;2023-04-25T10:28:28;3.92;;;3.03;;
32250;SDS011;41295;48.518;9.206;2023-04-25T10:30:31;4.63;;;2.85;;
32250;SDS011;41295;48.518;9.206;2023-04-25T10:32:33;3.55;;;2.47;;
32250;SDS011;41295;48.518;9.206;2023-04-25T10:34:38;3.88;;;1.95;;
32250;SDS011;41295;48.518;9.206;2023-04-25T10:36:42;2.65;;;1.60;;
32250;SDS011;41295;48.518;9.206;2023-04-25T10:38:45;4.15;;;1.55;;
32250;SDS011;41295;48.518;9.206;2023-04-25T10:41:03;2.00;;;1.38;;
32250;SDS011;41295;48.518;9.206;2023-04-25T10:45:50;1.70;;;1.10;;
32250;SDS011;41295;48.518;9.206;2023-04-25T10:47:53;2.15;;;1.27;;
32250;SDS011;41295;48.518;9.206;2023-04-25T10:49:56;2.40;;;1.73;;
32250;SDS011;41295;48.518;9.206;2023-04-25T10:52:10;2.25;;;0.80;;
32250;SDS011;41295;48.518;9.206;2023-04-25T10:54:14;0.68;;;0.65;;
32250;SDS011;41295;48.518;9.206;2023-04-25T10:56:22;1.83;;;0.80;;
32250;SDS011;41295;48.518;9.206;2023-04-25T10:58:27;1.05;;;0.70;;
32250;SDS011;41295;48.518;9.206;2023-04-25T11:00:29;0.90;;;0.88;;
32250;SDS011;41295;48.518;9.206;2023-04-25T11:02:49;0.88;;;0.77;;
32250;SDS011;41295;48.518;9.206;2023-04-25T11:04:54;1.20;;;0.73;;
32250;SDS011;41295;48.518;9.206;2023-04-25T11:07:00;1.65;;;1.17;;
32250;SDS011;41295;48.518;9.206;2023-04-25T11:09:10;1.30;;;1.00;;
32250;SDS011;41295;48.518;9.206;2023-04-25T11:11:14;2.65;;;1.02;;
32250;SDS011;41295;48.518;9.206;2023-04-25T11:13:19;2.92;;;1.23;;
32250;SDS011;41295;48.518;9.206;2023-04-25T11:15:22;1.40;;;1.00;;
32250;SDS011;41295;48.518;9.206;2023-04-25T11:17:25;1.08;;;0.88;;
32250;SDS011;41295;48.518;9.206;2023-04-25T11:19:28;1.98;;;1.30;;
32250;SDS011;41295;48.518;9.206;2023-04-25T11:21:31;2.83;;;1.00;;
32250;SDS011;41295;48.518;9.206;2023-04-25T11:23:34;1.90;;;1.20;;
32250;SDS011;41295;48.518;9.206;2023-04-25T11:25:36;1.25;;;0.70;;
32250;SDS011;41295;48.518;9.206;2023-04-25T11:27:49;1.20;;;1.00;;
32250;SDS011;41295;48.518;9.206;2023-04-25T11:29:53;0.95;;;0.90;;
32250;SDS011;41295;48.518;9.206;2023-04-25T11:31:56;0.80;;;0.75;;
32250;SDS011;41295;48.518;9.206;2023-04-25T11:34:00;0.95;;;0.63;;
32250;SDS011;41295;48.518;9.206;2023-04-25T11:36:02;0.70;;;0.70;;
32250;SDS011;41295;48.518;9.206;2023-04-25T11:38:06;0.70;;;0.70;;
32250;SDS011;41295;48.518;9.206;2023-04-25T11:40:09;1.60;;;1.00;;
32250;SDS011;41295;48.518;9.206;2023-04-25T11:42:13;1.77;;;0.80;;
32250;SDS011;41295;48.518;9.206;2023-04-25T11:44:16;1.00;;;0.60;;
32250;SDS011;41295;48.518;9.206;2023-04-25T11:46:20;0.70;;;0.70;;
32250;SDS011;41295;48.518;9.206;2023-04-25T11:48:24;1.27;;;0.88;;
32250;SDS011;41295;48.518;9.206;2023-04-25T11:50:27;1.00;;;1.00;;
32250;SDS011;41295;48.518;9.206;2023-04-25T11:52:37;0.77;;;0.77;;
32250;SDS011;41295;48.518;9.206;2023-04-25T11:54:40;1.15;;;0.80;;
32250;SDS011;41295;48.518;9.206;2023-04-25T11:56:43;0.93;;;0.82;;
32250;SDS011;41295;48.518;9.206;2023-04-25T11:58:59;0.80;;;0.80;;
32250;SDS011;41295;48.518;9.206;2023-04-25T12:01:03;1.00;;;0.90;;
32250;SDS011;41295;48.518;9.206;2023-04-25T12:03:08;1.17;;;0.82;;
32250;SDS011;41295;48.518;9.206;2023-04-25T12:05:12;2.30;;;0.77;;
32250;SDS011;41295;48.518;9.206;2023-04-25T12:07:33;0.70;;;0.70;;
32250;SDS011;41295;48.518;9.206;2023-04-25T12:09:35;0.93;;;0.80;;
32250;SDS011;41295;48.518;9.206;2023-04-25T12:11:41;0.95;;;0.88;;
32250;SDS011;41295;48.518;9.206;2023-04-25T12:13:44;1.05;;;0.80;;
32250;SDS011;41295;48.518;9.206;2023-04-25T12:15:47;1.63;;;0.95;;
32250;SDS011;41295;48.518;9.206;2023-04-25T12:17:50;1.13;;;0.85;;
32250;SDS011;41295;48.518;9.206;2023-04-25T12:19:55;0.68;;;0.65;;
32250;SDS011;41295;48.518;9.206;2023-04-25T12:21:57;1.58;;;1.02;;
32250;SDS011;41295;48.518;9.206;2023-04-25T12:24:08;1.50;;;0.90;;
32250;SDS011;41295;48.518;9.206;2023-04-25T12:26:12;1.52;;;0.90;;
32250;SDS011;41295;48.518;9.206;2023-04-25T12:28:16;1.15;;;0.98;;
32250;SDS011;41295;48.518;9.206;2023-04-25T12:30:20;0.73;;;0.73;;
32250;SDS011;41295;48.518;9.206;2023-04-25T12:32:23;1.17;;;0.93;;
32250;SDS011;41295;48.518;9.206;2023-04-25T12:34:26;1.80;;;0.88;;